sensor_id;sensor_type;location;lat;lon;timestamp;P1;durP1;ratioP1;P2;durP2;ratioP2
36257;SDS011;22294;52.044;4.582;2022-12-17T00:01:25;53.65;;;25.00;;
36257;SDS011;22294;52.044;4.582;2022-12-17T00:04:09;63.50;;;25.55;;
36257;SDS011;22294;52.044;4.582;2022-12-17T00:06:53;53.30;;;25.55;;
36257;SDS011;22294;52.044;4.582;2022-12-17T00:09:36;45.20;;;24.80;;
36257;SDS011;22294;52.044;4.582;2022-12-17T00:12:20;46.78;;;24.27;;
36257;SDS011;22294;52.044;4.582;2022-12-17T00:15:04;48.33;;;24.58;;
36257;SDS011;22294;52.044;4.582;2022-12-17T00:17:48;53.25;;;25.08;;
36257;SDS011;22294;52.044;4.582;2022-12-17T00:20:32;58.72;;;26.23;;
36257;SDS011;22294;52.044;4.582;2022-12-17T00:23:16;55.92;;;25.77;;
36257;SDS011;22294;52.044;4.582;2022-12-17T00:26:00;65.53;;;25.50;;
36257;SDS011;22294;52.044;4.582;2022-12-17T00:28:44;59.55;;;25.25;;
36257;SDS011;22294;52.044;4.582;2022-12-17T00:31:28;55.35;;;24.30;;
36257;SDS011;22294;52.044;4.582;2022-12-17T00:34:13;52.50;;;24.55;;
36257;SDS011;22294;52.044;4.582;2022-12-17T00:36:57;53.47;;;25.92;;
36257;SDS011;22294;52.044;4.582;2022-12-17T00:39:41;61.70;;;26.88;;
36257;SDS011;22294;52.044;4.582;2022-12-17T00:42:25;57.65;;;26.15;;
36257;SDS011;22294;52.044;4.582;2022-12-17T00:45:09;58.60;;;26.13;;
36257;SDS011;22294;52.044;4.582;2022-12-17T00:47:53;58.45;;;25.80;;
36257;SDS011;22294;52.044;4.582;2022-12-17T00:50:37;52.58;;;25.23;;
36257;SDS011;22294;52.044;4.582;2022-12-17T00:53:21;62.60;;;25.67;;
36257;SDS011;22294;52.044;4.582;2022-12-17T00:56:05;54.50;;;26.13;;
36257;SDS011;22294;52.044;4.582;2022-12-17T00:58:49;71.75;;;26.73;;
36257;SDS011;22294;52.044;4.582;2022-12-17T01:01:33;53.60;;;25.88;;
36257;SDS011;22294;52.044;4.582;2022-12-17T01:04:16;58.15;;;25.88;;
36257;SDS011;22294;52.044;4.582;2022-12-17T01:07:00;53.03;;;25.48;;
36257;SDS011;22294;52.044;4.582;2022-12-17T01:09:44;56.38;;;26.77;;
36257;SDS011;22294;52.044;4.582;2022-12-17T01:12:28;54.05;;;24.02;;
36257;SDS011;22294;52.044;4.582;2022-12-17T01:15:12;87.75;;;26.88;;
36257;SDS011;22294;52.044;4.582;2022-12-17T01:17:57;51.42;;;24.92;;
36257;SDS011;22294;52.044;4.582;2022-12-17T01:20:41;47.20;;;24.50;;
36257;SDS011;22294;52.044;4.582;2022-12-17T01:23:25;57.42;;;24.75;;
36257;SDS011;22294;52.044;4.582;2022-12-17T01:26:09;57.35;;;26.75;;
36257;SDS011;22294;52.044;4.582;2022-12-17T01:29:13;51.20;;;24.10;;
36257;SDS011;22294;52.044;4.582;2022-12-17T01:31:56;59.47;;;24.88;;
36257;SDS011;22294;52.044;4.582;2022-12-17T01:34:40;47.72;;;25.45;;
36257;SDS011;22294;52.044;4.582;2022-12-17T01:37:24;48.03;;;24.55;;
36257;SDS011;22294;52.044;4.582;2022-12-17T01:40:08;48.88;;;25.13;;
36257;SDS011;22294;52.044;4.582;2022-12-17T01:42:53;49.97;;;23.83;;
36257;SDS011;22294;52.044;4.582;2022-12-17T01:45:41;49.70;;;23.98;;
36257;SDS011;22294;52.044;4.582;2022-12-17T01:48:46;48.20;;;23.63;;
36257;SDS011;22294;52.044;4.582;2022-12-17T01:51:31;46.05;;;24.20;;
36257;SDS011;22294;52.044;4.582;2022-12-17T01:54:17;53.03;;;23.83;;
36257;SDS011;22294;52.044;4.582;2022-12-17T01:57:02;55.72;;;23.75;;
36257;SDS011;22294;52.044;4.582;2022-12-17T01:59:50;42.55;;;22.65;;
36257;SDS011;22294;52.044;4.582;2022-12-17T02:02:42;49.05;;;22.15;;
36257;SDS011;22294;52.044;4.582;2022-12-17T02:05:33;44.88;;;22.15;;
36257;SDS011;22294;52.044;4.582;2022-12-17T02:11:35;47.40;;;22.52;;
36257;SDS011;22294;52.044;4.582;2022-12-17T02:14:25;48.92;;;23.05;;
36257;SDS011;22294;52.044;4.582;2022-12-17T02:17:17;52.15;;;24.42;;
36257;SDS011;22294;52.044;4.582;2022-12-17T02:20:10;50.78;;;24.75;;
36257;SDS011;22294;52.044;4.582;2022-12-17T02:28:56;51.08;;;25.67;;
36257;SDS011;22294;52.044;4.582;2022-12-17T02:31:43;51.72;;;24.88;;
36257;SDS011;22294;52.044;4.582;2022-12-17T02:34:28;74.80;;;28.00;;
36257;SDS011;22294;52.044;4.582;2022-12-17T02:37:12;51.75;;;27.27;;
36257;SDS011;22294;52.044;4.582;2022-12-17T02:39:56;64.00;;;27.95;;
36257;SDS011;22294;52.044;4.582;2022-12-17T02:43:00;61.05;;;27.05;;
36257;SDS011;22294;52.044;4.582;2022-12-17T02:45:45;66.47;;;28.08;;
36257;SDS011;22294;52.044;4.582;2022-12-17T02:48:29;64.60;;;27.90;;
36257;SDS011;22294;52.044;4.582;2022-12-17T02:51:14;71.28;;;26.95;;
36257;SDS011;22294;52.044;4.582;2022-12-17T02:54:00;66.20;;;26.83;;
36257;SDS011;22294;52.044;4.582;2022-12-17T02:56:46;78.53;;;27.80;;
36257;SDS011;22294;52.044;4.582;2022-12-17T02:59:30;64.32;;;28.48;;
36257;SDS011;22294;52.044;4.582;2022-12-17T03:02:15;62.97;;;29.05;;
36257;SDS011;22294;52.044;4.582;2022-12-17T03:04:58;62.08;;;28.95;;
36257;SDS011;22294;52.044;4.582;2022-12-17T03:07:42;72.93;;;29.85;;
36257;SDS011;22294;52.044;4.582;2022-12-17T03:10:26;64.63;;;29.27;;
36257;SDS011;22294;52.044;4.582;2022-12-17T03:13:20;60.80;;;30.52;;
36257;SDS011;22294;52.044;4.582;2022-12-17T03:16:09;77.20;;;29.38;;
36257;SDS011;22294;52.044;4.582;2022-12-17T03:18:54;78.95;;;31.42;;
36257;SDS011;22294;52.044;4.582;2022-12-17T03:21:37;80.32;;;30.73;;
36257;SDS011;22294;52.044;4.582;2022-12-17T03:24:38;61.70;;;28.95;;
36257;SDS011;22294;52.044;4.582;2022-12-17T03:27:22;73.43;;;29.85;;
36257;SDS011;22294;52.044;4.582;2022-12-17T03:30:06;66.15;;;30.63;;
36257;SDS011;22294;52.044;4.582;2022-12-17T03:32:50;69.05;;;29.92;;
36257;SDS011;22294;52.044;4.582;2022-12-17T03:35:34;68.30;;;31.17;;
36257;SDS011;22294;52.044;4.582;2022-12-17T03:38:18;66.25;;;31.02;;
36257;SDS011;22294;52.044;4.582;2022-12-17T03:41:02;71.88;;;30.70;;
36257;SDS011;22294;52.044;4.582;2022-12-17T03:43:46;64.65;;;30.35;;
36257;SDS011;22294;52.044;4.582;2022-12-17T03:46:29;75.13;;;32.05;;
36257;SDS011;22294;52.044;4.582;2022-12-17T03:49:13;73.93;;;31.75;;
36257;SDS011;22294;52.044;4.582;2022-12-17T03:51:57;78.10;;;31.48;;
36257;SDS011;22294;52.044;4.582;2022-12-17T03:54:41;65.35;;;31.13;;
36257;SDS011;22294;52.044;4.582;2022-12-17T03:57:25;69.60;;;32.40;;
36257;SDS011;22294;52.044;4.582;2022-12-17T04:00:09;73.00;;;31.77;;
36257;SDS011;22294;52.044;4.582;2022-12-17T04:02:53;80.30;;;32.42;;
36257;SDS011;22294;52.044;4.582;2022-12-17T04:05:37;74.28;;;33.25;;
36257;SDS011;22294;52.044;4.582;2022-12-17T04:08:21;74.68;;;32.65;;
36257;SDS011;22294;52.044;4.582;2022-12-17T04:11:06;76.25;;;32.17;;
36257;SDS011;22294;52.044;4.582;2022-12-17T04:13:50;71.30;;;32.45;;
36257;SDS011;22294;52.044;4.582;2022-12-17T04:16:34;77.32;;;32.78;;
36257;SDS011;22294;52.044;4.582;2022-12-17T04:19:18;75.82;;;31.40;;
36257;SDS011;22294;52.044;4.582;2022-12-17T04:22:02;74.85;;;32.63;;
36257;SDS011;22294;52.044;4.582;2022-12-17T04:24:46;79.95;;;33.08;;
36257;SDS011;22294;52.044;4.582;2022-12-17T04:27:30;82.78;;;33.58;;
36257;SDS011;22294;52.044;4.582;2022-12-17T04:30:14;71.60;;;31.88;;
36257;SDS011;22294;52.044;4.582;2022-12-17T04:32:57;70.05;;;32.63;;
36257;SDS011;22294;52.044;4.582;2022-12-17T04:35:41;75.20;;;34.60;;
36257;SDS011;22294;52.044;4.582;2022-12-17T04:38:25;72.35;;;32.67;;
36257;SDS011;22294;52.044;4.582;2022-12-17T04:41:09;71.40;;;34.03;;
36257;SDS011;22294;52.044;4.582;2022-12-17T04:43:53;75.40;;;33.90;;
36257;SDS011;22294;52.044;4.582;2022-12-17T04:46:37;75.50;;;34.67;;
36257;SDS011;22294;52.044;4.582;2022-12-17T04:49:21;75.50;;;33.20;;
36257;SDS011;22294;52.044;4.582;2022-12-17T04:52:05;78.15;;;34.33;;
36257;SDS011;22294;52.044;4.582;2022-12-17T04:54:49;77.72;;;34.30;;
36257;SDS011;22294;52.044;4.582;2022-12-17T04:57:33;73.60;;;33.08;;
36257;SDS011;22294;52.044;4.582;2022-12-17T05:00:17;73.32;;;33.78;;
36257;SDS011;22294;52.044;4.582;2022-12-17T05:03:11;79.38;;;33.72;;
36257;SDS011;22294;52.044;4.582;2022-12-17T05:05:57;72.30;;;34.15;;
36257;SDS011;22294;52.044;4.582;2022-12-17T05:08:41;76.18;;;34.38;;
36257;SDS011;22294;52.044;4.582;2022-12-17T05:11:25;81.05;;;35.40;;
36257;SDS011;22294;52.044;4.582;2022-12-17T05:14:09;78.15;;;34.20;;
36257;SDS011;22294;52.044;4.582;2022-12-17T05:16:53;85.53;;;36.47;;
36257;SDS011;22294;52.044;4.582;2022-12-17T05:19:38;80.78;;;35.10;;
36257;SDS011;22294;52.044;4.582;2022-12-17T05:22:22;81.30;;;35.72;;
36257;SDS011;22294;52.044;4.582;2022-12-17T05:25:06;79.20;;;33.03;;
36257;SDS011;22294;52.044;4.582;2022-12-17T05:27:50;79.13;;;34.30;;
36257;SDS011;22294;52.044;4.582;2022-12-17T05:30:34;73.32;;;33.63;;
36257;SDS011;22294;52.044;4.582;2022-12-17T05:33:18;77.55;;;34.25;;
36257;SDS011;22294;52.044;4.582;2022-12-17T05:36:03;83.38;;;36.63;;
36257;SDS011;22294;52.044;4.582;2022-12-17T05:38:48;83.00;;;33.20;;
36257;SDS011;22294;52.044;4.582;2022-12-17T05:41:32;83.95;;;35.60;;
36257;SDS011;22294;52.044;4.582;2022-12-17T05:44:16;84.85;;;36.13;;
36257;SDS011;22294;52.044;4.582;2022-12-17T05:47:00;88.18;;;37.75;;
36257;SDS011;22294;52.044;4.582;2022-12-17T05:49:44;78.57;;;35.75;;
36257;SDS011;22294;52.044;4.582;2022-12-17T05:52:28;77.57;;;34.97;;
36257;SDS011;22294;52.044;4.582;2022-12-17T05:55:13;86.95;;;37.00;;
36257;SDS011;22294;52.044;4.582;2022-12-17T05:58:04;85.25;;;35.85;;
36257;SDS011;22294;52.044;4.582;2022-12-17T06:00:53;86.03;;;37.17;;
36257;SDS011;22294;52.044;4.582;2022-12-17T06:03:38;89.32;;;36.25;;
36257;SDS011;22294;52.044;4.582;2022-12-17T06:06:22;90.32;;;38.83;;
36257;SDS011;22294;52.044;4.582;2022-12-17T06:09:06;86.25;;;36.28;;
36257;SDS011;22294;52.044;4.582;2022-12-17T06:11:50;84.68;;;35.67;;
36257;SDS011;22294;52.044;4.582;2022-12-17T06:14:34;88.22;;;36.53;;
36257;SDS011;22294;52.044;4.582;2022-12-17T06:17:18;80.93;;;37.47;;
36257;SDS011;22294;52.044;4.582;2022-12-17T06:20:02;87.00;;;37.80;;
36257;SDS011;22294;52.044;4.582;2022-12-17T06:22:57;81.97;;;36.30;;
36257;SDS011;22294;52.044;4.582;2022-12-17T06:25:42;85.68;;;36.67;;
36257;SDS011;22294;52.044;4.582;2022-12-17T06:28:26;85.97;;;37.40;;
36257;SDS011;22294;52.044;4.582;2022-12-17T06:31:10;81.82;;;35.40;;
36257;SDS011;22294;52.044;4.582;2022-12-17T06:33:54;83.35;;;35.83;;
36257;SDS011;22294;52.044;4.582;2022-12-17T06:36:37;83.25;;;34.72;;
36257;SDS011;22294;52.044;4.582;2022-12-17T06:39:22;79.65;;;34.17;;
36257;SDS011;22294;52.044;4.582;2022-12-17T06:42:05;83.13;;;36.35;;
36257;SDS011;22294;52.044;4.582;2022-12-17T06:44:49;79.43;;;35.58;;
36257;SDS011;22294;52.044;4.582;2022-12-17T06:47:33;83.80;;;35.30;;
36257;SDS011;22294;52.044;4.582;2022-12-17T06:50:17;79.85;;;35.05;;
36257;SDS011;22294;52.044;4.582;2022-12-17T06:53:02;82.28;;;36.35;;
36257;SDS011;22294;52.044;4.582;2022-12-17T06:55:48;77.00;;;35.70;;
36257;SDS011;22294;52.044;4.582;2022-12-17T06:58:31;85.32;;;37.92;;
36257;SDS011;22294;52.044;4.582;2022-12-17T07:01:15;87.95;;;37.95;;
36257;SDS011;22294;52.044;4.582;2022-12-17T07:03:59;84.85;;;37.70;;
36257;SDS011;22294;52.044;4.582;2022-12-17T07:06:43;82.35;;;37.60;;
36257;SDS011;22294;52.044;4.582;2022-12-17T07:09:27;82.45;;;37.40;;
36257;SDS011;22294;52.044;4.582;2022-12-17T07:12:11;86.85;;;39.33;;
36257;SDS011;22294;52.044;4.582;2022-12-17T07:14:55;86.78;;;38.05;;
36257;SDS011;22294;52.044;4.582;2022-12-17T07:17:39;92.30;;;38.50;;
36257;SDS011;22294;52.044;4.582;2022-12-17T07:20:23;87.85;;;38.80;;
36257;SDS011;22294;52.044;4.582;2022-12-17T07:23:07;81.70;;;35.75;;
36257;SDS011;22294;52.044;4.582;2022-12-17T07:25:51;82.15;;;35.92;;
36257;SDS011;22294;52.044;4.582;2022-12-17T07:28:35;85.43;;;35.83;;
36257;SDS011;22294;52.044;4.582;2022-12-17T07:31:19;84.93;;;36.45;;
36257;SDS011;22294;52.044;4.582;2022-12-17T07:34:03;79.57;;;36.08;;
36257;SDS011;22294;52.044;4.582;2022-12-17T07:36:47;81.93;;;36.22;;
36257;SDS011;22294;52.044;4.582;2022-12-17T07:39:30;87.00;;;36.75;;
36257;SDS011;22294;52.044;4.582;2022-12-17T07:42:14;82.97;;;35.38;;
36257;SDS011;22294;52.044;4.582;2022-12-17T07:44:58;85.28;;;35.20;;
36257;SDS011;22294;52.044;4.582;2022-12-17T07:47:42;79.45;;;35.80;;
36257;SDS011;22294;52.044;4.582;2022-12-17T07:50:34;79.35;;;36.03;;
36257;SDS011;22294;52.044;4.582;2022-12-17T07:53:18;83.70;;;36.28;;
36257;SDS011;22294;52.044;4.582;2022-12-17T07:56:02;85.30;;;36.10;;
36257;SDS011;22294;52.044;4.582;2022-12-17T07:58:45;76.97;;;34.72;;
36257;SDS011;22294;52.044;4.582;2022-12-17T08:01:29;83.18;;;35.90;;
36257;SDS011;22294;52.044;4.582;2022-12-17T08:04:13;81.70;;;37.08;;
36257;SDS011;22294;52.044;4.582;2022-12-17T08:06:57;70.60;;;34.47;;
36257;SDS011;22294;52.044;4.582;2022-12-17T08:09:41;71.15;;;32.67;;
36257;SDS011;22294;52.044;4.582;2022-12-17T08:12:25;73.20;;;33.78;;
36257;SDS011;22294;52.044;4.582;2022-12-17T08:15:09;71.20;;;32.70;;
36257;SDS011;22294;52.044;4.582;2022-12-17T08:17:58;74.30;;;34.88;;
36257;SDS011;22294;52.044;4.582;2022-12-17T08:23:27;64.25;;;31.33;;
36257;SDS011;22294;52.044;4.582;2022-12-17T08:26:11;73.47;;;33.50;;
36257;SDS011;22294;52.044;4.582;2022-12-17T08:28:55;66.10;;;32.25;;
36257;SDS011;22294;52.044;4.582;2022-12-17T08:31:39;67.32;;;32.70;;
36257;SDS011;22294;52.044;4.582;2022-12-17T08:34:23;67.60;;;32.67;;
36257;SDS011;22294;52.044;4.582;2022-12-17T08:37:07;65.22;;;32.38;;
36257;SDS011;22294;52.044;4.582;2022-12-17T08:39:51;66.22;;;31.85;;
36257;SDS011;22294;52.044;4.582;2022-12-17T08:42:35;62.35;;;30.90;;
36257;SDS011;22294;52.044;4.582;2022-12-17T08:45:19;67.43;;;31.35;;
36257;SDS011;22294;52.044;4.582;2022-12-17T08:48:04;68.13;;;31.90;;
36257;SDS011;22294;52.044;4.582;2022-12-17T08:50:49;70.45;;;32.03;;
36257;SDS011;22294;52.044;4.582;2022-12-17T08:53:33;64.40;;;31.25;;
36257;SDS011;22294;52.044;4.582;2022-12-17T08:56:17;71.63;;;32.72;;
36257;SDS011;22294;52.044;4.582;2022-12-17T08:59:01;65.20;;;32.83;;
36257;SDS011;22294;52.044;4.582;2022-12-17T09:01:45;63.90;;;33.08;;
36257;SDS011;22294;52.044;4.582;2022-12-17T09:04:29;64.82;;;32.47;;
36257;SDS011;22294;52.044;4.582;2022-12-17T09:07:13;68.20;;;33.30;;
36257;SDS011;22294;52.044;4.582;2022-12-17T09:09:57;69.68;;;32.35;;
36257;SDS011;22294;52.044;4.582;2022-12-17T09:12:41;66.43;;;33.30;;
36257;SDS011;22294;52.044;4.582;2022-12-17T09:15:25;68.85;;;31.80;;
36257;SDS011;22294;52.044;4.582;2022-12-17T09:18:08;64.38;;;31.70;;
36257;SDS011;22294;52.044;4.582;2022-12-17T09:20:53;68.18;;;32.80;;
36257;SDS011;22294;52.044;4.582;2022-12-17T09:23:37;65.70;;;31.75;;
36257;SDS011;22294;52.044;4.582;2022-12-17T09:26:21;67.63;;;32.75;;
36257;SDS011;22294;52.044;4.582;2022-12-17T09:29:05;61.63;;;31.77;;
36257;SDS011;22294;52.044;4.582;2022-12-17T09:31:49;59.10;;;30.42;;
36257;SDS011;22294;52.044;4.582;2022-12-17T09:34:33;59.83;;;29.80;;
36257;SDS011;22294;52.044;4.582;2022-12-17T09:37:17;66.88;;;32.38;;
36257;SDS011;22294;52.044;4.582;2022-12-17T09:40:01;59.80;;;31.50;;
36257;SDS011;22294;52.044;4.582;2022-12-17T09:42:51;61.38;;;32.40;;
36257;SDS011;22294;52.044;4.582;2022-12-17T09:54:04;56.10;;;30.58;;
36257;SDS011;22294;52.044;4.582;2022-12-17T09:56:53;59.70;;;30.95;;
36257;SDS011;22294;52.044;4.582;2022-12-17T09:59:37;55.45;;;30.35;;
36257;SDS011;22294;52.044;4.582;2022-12-17T10:02:25;54.55;;;32.33;;
36257;SDS011;22294;52.044;4.582;2022-12-17T10:05:12;59.22;;;30.67;;
36257;SDS011;22294;52.044;4.582;2022-12-17T10:07:59;56.45;;;31.08;;
36257;SDS011;22294;52.044;4.582;2022-12-17T10:10:48;56.47;;;30.88;;
36257;SDS011;22294;52.044;4.582;2022-12-17T10:13:32;57.03;;;32.15;;
36257;SDS011;22294;52.044;4.582;2022-12-17T10:19:14;56.58;;;31.67;;
36257;SDS011;22294;52.044;4.582;2022-12-17T10:22:12;62.42;;;33.42;;
36257;SDS011;22294;52.044;4.582;2022-12-17T10:25:03;58.47;;;31.63;;
36257;SDS011;22294;52.044;4.582;2022-12-17T10:27:48;53.90;;;30.50;;
36257;SDS011;22294;52.044;4.582;2022-12-17T10:30:32;55.03;;;31.10;;
36257;SDS011;22294;52.044;4.582;2022-12-17T10:33:17;57.75;;;32.90;;
36257;SDS011;22294;52.044;4.582;2022-12-17T10:36:04;58.38;;;31.95;;
36257;SDS011;22294;52.044;4.582;2022-12-17T10:39:01;55.45;;;30.85;;
36257;SDS011;22294;52.044;4.582;2022-12-17T10:41:45;60.15;;;32.00;;
36257;SDS011;22294;52.044;4.582;2022-12-17T10:44:36;61.83;;;34.08;;
36257;SDS011;22294;52.044;4.582;2022-12-17T10:47:24;57.85;;;32.58;;
36257;SDS011;22294;52.044;4.582;2022-12-17T10:50:11;64.15;;;31.95;;
36257;SDS011;22294;52.044;4.582;2022-12-17T10:52:57;57.00;;;31.45;;
36257;SDS011;22294;52.044;4.582;2022-12-17T10:55:49;53.65;;;29.63;;
36257;SDS011;22294;52.044;4.582;2022-12-17T10:58:41;54.45;;;30.58;;
36257;SDS011;22294;52.044;4.582;2022-12-17T11:01:27;51.67;;;28.67;;
36257;SDS011;22294;52.044;4.582;2022-12-17T11:04:28;53.47;;;29.40;;
36257;SDS011;22294;52.044;4.582;2022-12-17T11:07:24;54.22;;;29.35;;
36257;SDS011;22294;52.044;4.582;2022-12-17T11:10:13;55.03;;;29.35;;
36257;SDS011;22294;52.044;4.582;2022-12-17T11:13:01;58.65;;;29.00;;
36257;SDS011;22294;52.044;4.582;2022-12-17T11:15:52;52.95;;;28.55;;
36257;SDS011;22294;52.044;4.582;2022-12-17T11:21:24;56.38;;;29.45;;
36257;SDS011;22294;52.044;4.582;2022-12-17T11:24:16;53.47;;;28.38;;
36257;SDS011;22294;52.044;4.582;2022-12-17T11:27:05;51.58;;;29.50;;
36257;SDS011;22294;52.044;4.582;2022-12-17T11:29:50;52.75;;;29.70;;
36257;SDS011;22294;52.044;4.582;2022-12-17T11:38:49;58.63;;;30.52;;
36257;SDS011;22294;52.044;4.582;2022-12-17T11:41:47;53.25;;;30.15;;
36257;SDS011;22294;52.044;4.582;2022-12-17T11:44:43;52.15;;;29.10;;
36257;SDS011;22294;52.044;4.582;2022-12-17T11:47:45;52.42;;;30.50;;
36257;SDS011;22294;52.044;4.582;2022-12-17T11:50:39;54.35;;;30.73;;
36257;SDS011;22294;52.044;4.582;2022-12-17T11:59:52;51.50;;;30.30;;
36257;SDS011;22294;52.044;4.582;2022-12-17T12:10:07;54.00;;;29.42;;
36257;SDS011;22294;52.044;4.582;2022-12-17T12:16:15;51.67;;;31.27;;
36257;SDS011;22294;52.044;4.582;2022-12-17T12:19:14;58.53;;;31.48;;
36257;SDS011;22294;52.044;4.582;2022-12-17T12:34:05;51.72;;;30.65;;
36257;SDS011;22294;52.044;4.582;2022-12-17T12:37:01;51.85;;;30.33;;
36257;SDS011;22294;52.044;4.582;2022-12-17T12:40:31;54.25;;;30.02;;
36257;SDS011;22294;52.044;4.582;2022-12-17T12:43:18;48.00;;;29.77;;
36257;SDS011;22294;52.044;4.582;2022-12-17T12:46:24;50.90;;;30.02;;
36257;SDS011;22294;52.044;4.582;2022-12-17T12:49:19;46.95;;;29.17;;
36257;SDS011;22294;52.044;4.582;2022-12-17T12:52:08;54.25;;;30.80;;
36257;SDS011;22294;52.044;4.582;2022-12-17T12:54:56;57.28;;;30.52;;
36257;SDS011;22294;52.044;4.582;2022-12-17T12:57:57;53.92;;;28.33;;
36257;SDS011;22294;52.044;4.582;2022-12-17T13:14:27;52.85;;;30.08;;
36257;SDS011;22294;52.044;4.582;2022-12-17T13:17:04;50.45;;;30.42;;
36257;SDS011;22294;52.044;4.582;2022-12-17T13:19:44;56.45;;;31.38;;
36257;SDS011;22294;52.044;4.582;2022-12-17T13:24:48;52.35;;;31.08;;
36257;SDS011;22294;52.044;4.582;2022-12-17T13:27:26;52.58;;;31.38;;
36257;SDS011;22294;52.044;4.582;2022-12-17T13:29:51;51.55;;;30.80;;
36257;SDS011;22294;52.044;4.582;2022-12-17T13:37:41;51.47;;;30.33;;
36257;SDS011;22294;52.044;4.582;2022-12-17T13:40:16;51.87;;;30.90;;
36257;SDS011;22294;52.044;4.582;2022-12-17T13:42:46;52.55;;;30.67;;
36257;SDS011;22294;52.044;4.582;2022-12-17T13:45:15;51.65;;;30.75;;
36257;SDS011;22294;52.044;4.582;2022-12-17T13:47:42;56.63;;;31.83;;
36257;SDS011;22294;52.044;4.582;2022-12-17T13:50:18;54.33;;;31.35;;
36257;SDS011;22294;52.044;4.582;2022-12-17T13:52:46;57.42;;;32.40;;
36257;SDS011;22294;52.044;4.582;2022-12-17T13:55:25;56.30;;;32.25;;
36257;SDS011;22294;52.044;4.582;2022-12-17T13:57:53;54.83;;;32.67;;
36257;SDS011;22294;52.044;4.582;2022-12-17T14:00:29;56.97;;;33.10;;
36257;SDS011;22294;52.044;4.582;2022-12-17T14:02:55;67.13;;;35.60;;
36257;SDS011;22294;52.044;4.582;2022-12-17T14:05:25;64.43;;;36.53;;
36257;SDS011;22294;52.044;4.582;2022-12-17T14:07:54;70.70;;;38.25;;
36257;SDS011;22294;52.044;4.582;2022-12-17T14:10:23;76.00;;;38.22;;
36257;SDS011;22294;52.044;4.582;2022-12-17T14:12:49;76.60;;;38.80;;
36257;SDS011;22294;52.044;4.582;2022-12-17T14:15:22;73.90;;;38.88;;
36257;SDS011;22294;52.044;4.582;2022-12-17T14:17:50;68.30;;;37.90;;
36257;SDS011;22294;52.044;4.582;2022-12-17T14:20:31;77.28;;;38.63;;
36257;SDS011;22294;52.044;4.582;2022-12-17T14:22:59;74.35;;;36.45;;
36257;SDS011;22294;52.044;4.582;2022-12-17T14:25:35;73.55;;;38.35;;
36257;SDS011;22294;52.044;4.582;2022-12-17T14:28:03;72.55;;;36.97;;
36257;SDS011;22294;52.044;4.582;2022-12-17T14:30:36;74.07;;;35.58;;
36257;SDS011;22294;52.044;4.582;2022-12-17T14:33:01;73.03;;;37.45;;
36257;SDS011;22294;52.044;4.582;2022-12-17T14:35:28;69.18;;;35.40;;
36257;SDS011;22294;52.044;4.582;2022-12-17T14:37:55;78.53;;;38.60;;
36257;SDS011;22294;52.044;4.582;2022-12-17T14:40:22;71.70;;;37.42;;
36257;SDS011;22294;52.044;4.582;2022-12-17T14:42:48;77.28;;;38.15;;
36257;SDS011;22294;52.044;4.582;2022-12-17T14:47:50;77.67;;;36.03;;
36257;SDS011;22294;52.044;4.582;2022-12-17T14:50:30;74.85;;;36.53;;
36257;SDS011;22294;52.044;4.582;2022-12-17T14:55:49;76.97;;;35.55;;
36257;SDS011;22294;52.044;4.582;2022-12-17T14:58:18;68.28;;;34.55;;
36257;SDS011;22294;52.044;4.582;2022-12-17T15:00:46;74.95;;;35.80;;
36257;SDS011;22294;52.044;4.582;2022-12-17T15:03:31;73.60;;;36.67;;
36257;SDS011;22294;52.044;4.582;2022-12-17T15:06:02;76.20;;;35.90;;
36257;SDS011;22294;52.044;4.582;2022-12-17T15:08:34;71.88;;;36.83;;
36257;SDS011;22294;52.044;4.582;2022-12-17T15:11:03;77.68;;;36.45;;
36257;SDS011;22294;52.044;4.582;2022-12-17T15:13:29;74.47;;;36.63;;
36257;SDS011;22294;52.044;4.582;2022-12-17T15:15:54;74.70;;;35.30;;
36257;SDS011;22294;52.044;4.582;2022-12-17T15:18:19;78.18;;;36.05;;
36257;SDS011;22294;52.044;4.582;2022-12-17T15:20:45;74.50;;;34.50;;
36257;SDS011;22294;52.044;4.582;2022-12-17T15:23:15;72.43;;;34.65;;
36257;SDS011;22294;52.044;4.582;2022-12-17T15:25:41;81.70;;;36.80;;
36257;SDS011;22294;52.044;4.582;2022-12-17T15:28:08;80.28;;;35.58;;
36257;SDS011;22294;52.044;4.582;2022-12-17T15:30:34;74.20;;;35.20;;
36257;SDS011;22294;52.044;4.582;2022-12-17T15:33:00;73.63;;;34.67;;
36257;SDS011;22294;52.044;4.582;2022-12-17T15:35:26;77.78;;;35.55;;
36257;SDS011;22294;52.044;4.582;2022-12-17T15:37:51;77.47;;;35.53;;
36257;SDS011;22294;52.044;4.582;2022-12-17T15:40:16;72.75;;;32.55;;
36257;SDS011;22294;52.044;4.582;2022-12-17T15:42:42;77.00;;;36.17;;
36257;SDS011;22294;52.044;4.582;2022-12-17T15:45:26;81.32;;;34.92;;
36257;SDS011;22294;52.044;4.582;2022-12-17T15:47:52;80.05;;;36.80;;
36257;SDS011;22294;52.044;4.582;2022-12-17T15:50:17;82.45;;;35.42;;
36257;SDS011;22294;52.044;4.582;2022-12-17T15:52:43;78.07;;;33.92;;
36257;SDS011;22294;52.044;4.582;2022-12-17T15:55:08;81.32;;;35.85;;
36257;SDS011;22294;52.044;4.582;2022-12-17T15:57:35;77.47;;;34.97;;
36257;SDS011;22294;52.044;4.582;2022-12-17T16:00:00;78.45;;;36.05;;
36257;SDS011;22294;52.044;4.582;2022-12-17T16:02:25;83.05;;;35.95;;
36257;SDS011;22294;52.044;4.582;2022-12-17T16:04:51;79.80;;;34.88;;
36257;SDS011;22294;52.044;4.582;2022-12-17T16:07:16;80.45;;;36.13;;
36257;SDS011;22294;52.044;4.582;2022-12-17T16:09:42;84.70;;;34.75;;
36257;SDS011;22294;52.044;4.582;2022-12-17T16:12:07;85.05;;;36.25;;
36257;SDS011;22294;52.044;4.582;2022-12-17T16:14:33;81.68;;;36.20;;
36257;SDS011;22294;52.044;4.582;2022-12-17T16:16:58;83.38;;;36.35;;
36257;SDS011;22294;52.044;4.582;2022-12-17T16:19:23;86.95;;;36.70;;
36257;SDS011;22294;52.044;4.582;2022-12-17T16:21:48;78.70;;;37.17;;
36257;SDS011;22294;52.044;4.582;2022-12-17T16:24:14;81.97;;;35.03;;
36257;SDS011;22294;52.044;4.582;2022-12-17T16:26:39;85.55;;;37.67;;
36257;SDS011;22294;52.044;4.582;2022-12-17T16:29:05;78.55;;;35.85;;
36257;SDS011;22294;52.044;4.582;2022-12-17T16:31:30;81.80;;;36.72;;
36257;SDS011;22294;52.044;4.582;2022-12-17T16:33:56;80.30;;;35.05;;
36257;SDS011;22294;52.044;4.582;2022-12-17T16:36:22;88.88;;;37.47;;
36257;SDS011;22294;52.044;4.582;2022-12-17T16:38:49;90.13;;;36.63;;
36257;SDS011;22294;52.044;4.582;2022-12-17T16:41:16;89.05;;;37.55;;
36257;SDS011;22294;52.044;4.582;2022-12-17T16:43:42;93.53;;;38.35;;
36257;SDS011;22294;52.044;4.582;2022-12-17T16:46:21;87.72;;;37.92;;
36257;SDS011;22294;52.044;4.582;2022-12-17T16:48:49;88.68;;;37.13;;
36257;SDS011;22294;52.044;4.582;2022-12-17T16:51:15;87.90;;;36.90;;
36257;SDS011;22294;52.044;4.582;2022-12-17T16:53:42;92.00;;;37.85;;
36257;SDS011;22294;52.044;4.582;2022-12-17T16:56:08;96.28;;;38.47;;
36257;SDS011;22294;52.044;4.582;2022-12-17T16:58:39;98.10;;;40.97;;
36257;SDS011;22294;52.044;4.582;2022-12-17T17:01:04;94.97;;;39.15;;
36257;SDS011;22294;52.044;4.582;2022-12-17T17:03:29;97.53;;;38.35;;
36257;SDS011;22294;52.044;4.582;2022-12-17T17:05:58;98.88;;;38.67;;
36257;SDS011;22294;52.044;4.582;2022-12-17T17:08:25;103.00;;;38.47;;
36257;SDS011;22294;52.044;4.582;2022-12-17T17:10:50;101.88;;;38.92;;
36257;SDS011;22294;52.044;4.582;2022-12-17T17:13:15;91.75;;;37.60;;